EGLL

London Heathrow Airport

London, United Kingdom
TAF EGLL 210452Z 2106/2212 33012KT 9999 FEW045 PROB30 TEMPO 2106/2112 34015G25KT
Issued Valid From Valid To
Jun-21 @ 04:52 UTC
(5 hours ago)
Jun-21 @ 06:00 UTC
(4 hours ago)
Jun-22 @ 12:00 UTC
(-1 days ago)
Jun-21 @ 06:00 to Jun-22 @ 12:00
TAF EGLL 210452Z 2106/2212 33012KT 9999 FEW045
Wind Visibility Clouds
330° at 12 knots 10,000+ meters
  • Few at 4,500' AGL
Temporary  (Probability 30%) Jun-21 @ 06:00 to Jun-21 @ 12:00
PROB30 TEMPO 2106/2112 34015G25KT
Wind
340° at 15 knots
 Gusting to 25 knots
TAF EGLL 210452Z 2106/2212 33012KT 9999 FEW045 PROB30 TEMPO 2106/2112 34015G25KT
Issued Jun-21 @ 04:52 UTC
(5 hours ago)
Valid From Jun-21 @ 06:00 UTC
(4 hours ago)
Valid To Jun-22 @ 12:00 UTC
(-1 days ago)
Jun-21 @ 06:00 - Jun-22 @ 12:00
Wind Visibility
330° at 12 knots 10,000+ meters
Clouds
  • Few at 4,500' AGL
Probability 30% Temporary Jun-21 @ 06:00 - Jun-21 @ 12:00
Wind
340° at 15 knots
 Gusting to 25 knots